createdAt,value
2024-03-09T00:02:01.626Z,102.90
2024-03-09T00:07:03.430Z,103.63
2024-03-09T00:12:05.377Z,99.70
2024-03-09T00:17:07.135Z,111.80
2024-03-09T00:22:09.034Z,107.40
2024-03-09T00:27:10.661Z,103.38
2024-03-09T00:32:12.392Z,107.55
2024-03-09T00:37:14.259Z,109.15
2024-03-09T00:42:16.065Z,111.10
2024-03-09T00:47:17.710Z,113.32
2024-03-09T00:52:19.417Z,119.97
2024-03-09T00:57:21.410Z,122.05
2024-03-09T01:02:23.183Z,105.70
2024-03-09T01:07:24.971Z,127.97
2024-03-09T01:12:26.702Z,116.03
2024-03-09T01:17:28.550Z,120.63
2024-03-09T01:22:30.736Z,118.82
2024-03-09T01:27:32.533Z,112.28
2024-03-09T01:32:34.697Z,118.78
2024-03-09T01:37:36.684Z,122.53
2024-03-09T01:42:38.385Z,112.05
2024-03-09T01:47:40.263Z,111.60
2024-03-09T01:52:44.659Z,118.10
2024-03-09T01:57:46.827Z,109.30
2024-03-09T02:02:49.288Z,126.83
2024-03-09T02:07:50.920Z,118.50
2024-03-09T02:12:52.915Z,113.03
2024-03-09T02:17:54.592Z,124.80
2024-03-09T02:22:56.257Z,115.75
2024-03-09T02:28:00.171Z,121.25
2024-03-09T02:33:06.013Z,119.38
2024-03-09T02:38:07.742Z,115.32
2024-03-09T02:43:09.555Z,116.28
2024-03-09T02:48:11.377Z,111.03
2024-03-09T02:53:13.020Z,112.20
2024-03-09T02:58:14.705Z,113.13
2024-03-09T03:03:16.364Z,122.43
2024-03-09T03:08:18.076Z,111.93
2024-03-09T03:13:20.148Z,120.13
2024-03-09T03:18:22.230Z,116.67
2024-03-09T03:23:23.990Z,123.00
2024-03-09T03:28:25.818Z,122.00
2024-03-09T03:33:27.536Z,113.47
2024-03-09T03:38:29.329Z,120.78
2024-03-09T03:43:31.219Z,116.22
2024-03-09T03:48:33.574Z,111.38
2024-03-09T03:53:36.591Z,110.55
2024-03-09T03:58:38.931Z,116.90
2024-03-09T04:03:40.859Z,110.07
2024-03-09T04:08:42.909Z,106.10
2024-03-09T04:13:44.970Z,112.37
2024-03-09T04:18:46.795Z,118.00
2024-03-09T04:23:48.502Z,97.50
2024-03-09T04:28:50.291Z,119.55
2024-03-09T04:33:52.034Z,109.32
2024-03-09T04:38:54.253Z,112.00
2024-03-09T04:43:56.105Z,102.70
2024-03-09T04:48:57.786Z,109.90
2024-03-09T04:53:59.401Z,106.28
2024-03-09T04:59:01.388Z,118.72
2024-03-09T05:04:03.023Z,109.20
2024-03-09T05:09:04.663Z,112.85
2024-03-09T05:14:06.440Z,113.80
2024-03-09T05:19:08.367Z,125.20
2024-03-09T05:24:10.057Z,119.83
2024-03-09T05:29:11.732Z,120.65
2024-03-09T05:34:13.354Z,117.78
2024-03-09T05:39:15.056Z,120.85
2024-03-09T05:44:17.002Z,122.68
2024-03-09T05:49:18.664Z,118.53
2024-03-09T05:54:20.299Z,124.05
2024-03-09T05:59:21.913Z,127.28
2024-03-09T06:04:23.554Z,124.18
2024-03-09T06:09:25.131Z,125.95
2024-03-09T06:14:26.772Z,117.78
2024-03-09T06:19:28.771Z,118.87
2024-03-09T06:24:30.576Z,114.82
2024-03-09T06:29:32.183Z,133.82
2024-03-09T06:34:33.925Z,125.32
2024-03-09T06:39:35.908Z,131.55
2024-03-09T06:44:39.963Z,130.60
2024-03-09T06:49:41.945Z,139.25
2024-03-09T06:54:44.254Z,138.33
2024-03-09T06:59:45.902Z,141.48
2024-03-09T07:04:47.734Z,133.35
2024-03-09T07:09:49.441Z,126.70
2024-03-09T07:14:51.139Z,116.32
2024-03-09T07:19:53.727Z,127.38
2024-03-09T07:24:55.448Z,122.60
2024-03-09T07:29:57.062Z,125.30
2024-03-09T07:34:58.792Z,111.85
2024-03-09T07:40:00.844Z,121.20
2024-03-09T07:45:02.656Z,110.23
2024-03-09T07:50:04.509Z,114.80
2024-03-09T07:55:06.654Z,123.78
2024-03-09T08:00:08.595Z,114.07
2024-03-09T08:05:10.661Z,99.90
2024-03-09T08:10:25.862Z,91.47
2024-03-09T08:15:27.794Z,106.07
2024-03-09T08:20:29.584Z,92.63
2024-03-09T08:25:31.593Z,102.45
2024-03-09T08:30:33.460Z,92.10
2024-03-09T08:35:35.303Z,88.60
2024-03-09T08:40:37.607Z,91.10
2024-03-09T08:45:39.477Z,83.22
2024-03-09T08:50:44.584Z,81.68
2024-03-09T08:55:47.868Z,76.50
2024-03-09T09:00:49.575Z,79.55
2024-03-09T09:05:51.199Z,73.95
2024-03-09T09:10:53.217Z,73.10
2024-03-09T09:15:54.911Z,62.77
2024-03-09T09:20:56.679Z,61.75
2024-03-09T09:25:58.471Z,60.42
2024-03-09T09:31:00.318Z,48.53
2024-03-09T09:36:02.088Z,53.35
2024-03-09T09:41:04.183Z,45.67
2024-03-09T09:46:06.157Z,47.57
2024-03-09T09:51:09.605Z,40.53
2024-03-09T09:56:11.392Z,46.08
2024-03-09T10:01:13.162Z,40.47
2024-03-09T10:06:21.488Z,45.35
2024-03-09T10:11:23.149Z,48.53
2024-03-09T10:16:32.122Z,45.08
2024-03-09T10:21:37.226Z,42.05
2024-03-09T10:26:39.306Z,45.80
2024-03-09T10:31:44.744Z,47.08
2024-03-09T10:36:46.810Z,48.10
2024-03-09T10:41:50.110Z,34.05
2024-03-09T10:46:52.621Z,23.50
2024-03-09T10:51:55.809Z,21.80
2024-03-09T10:56:58.052Z,24.50
2024-03-09T11:02:01.237Z,17.83
2024-03-09T11:07:03.174Z,20.30
2024-03-09T11:12:05.157Z,24.53
2024-03-09T11:17:19.023Z,22.53
2024-03-09T11:22:46.994Z,21.58
2024-03-09T11:27:52.003Z,22.00
2024-03-09T11:32:58.133Z,22.88
2024-03-09T11:43:27.972Z,22.80
2024-03-09T11:48:29.554Z,24.80
2024-03-09T11:53:31.635Z,26.73
2024-03-09T11:58:33.493Z,26.77
2024-03-09T12:03:35.238Z,26.23
2024-03-09T12:08:37.009Z,22.10
2024-03-09T12:13:38.712Z,19.90
2024-03-09T12:18:49.264Z,24.65
2024-03-09T12:23:51.978Z,15.80
2024-03-09T12:28:57.195Z,20.77
2024-03-09T12:33:59.038Z,17.45
2024-03-09T12:39:13.279Z,32.72
2024-03-09T12:44:15.007Z,27.40
2024-03-09T12:49:16.783Z,28.17
2024-03-09T12:54:18.961Z,26.77
2024-03-09T12:59:23.688Z,24.97
2024-03-09T13:04:27.353Z,29.10
2024-03-09T13:09:30.492Z,30.67
2024-03-09T13:14:32.369Z,27.42
2024-03-09T13:19:34.085Z,19.97
2024-03-09T13:24:36.017Z,23.13
2024-03-09T13:29:37.949Z,24.63
2024-03-09T13:34:39.644Z,20.60
2024-03-09T13:39:41.273Z,24.55
2024-03-09T13:44:42.873Z,21.48
2024-03-09T13:49:44.559Z,21.98
2024-03-09T13:54:47.031Z,27.25
2024-03-09T14:04:52.376Z,23.88
2024-03-09T14:09:53.965Z,25.58
2024-03-09T14:14:56.505Z,24.73
2024-03-09T14:19:58.395Z,33.30
2024-03-09T14:25:00.569Z,24.13
2024-03-09T14:30:02.766Z,24.35
2024-03-09T14:35:04.832Z,25.67
2024-03-09T14:40:06.845Z,20.97
2024-03-09T14:45:08.702Z,24.03
2024-03-09T14:50:10.528Z,23.58
2024-03-09T14:55:12.346Z,23.07
2024-03-09T15:00:15.633Z,21.98
2024-03-09T15:05:17.477Z,22.75
2024-03-09T15:10:19.215Z,22.13
2024-03-09T15:15:20.805Z,18.25
2024-03-09T15:20:24.679Z,13.98
2024-03-09T15:25:27.829Z,17.30
2024-03-09T15:30:29.443Z,19.30
2024-03-09T15:35:31.303Z,13.13
2024-03-09T15:40:33.093Z,20.40
2024-03-09T15:45:35.054Z,16.10
2024-03-09T15:50:37.372Z,18.50
2024-03-09T15:55:39.202Z,15.32
2024-03-09T16:00:40.959Z,16.67
2024-03-09T16:05:42.830Z,20.50
2024-03-09T16:10:44.617Z,22.05
2024-03-09T16:15:46.564Z,21.10
2024-03-09T16:20:48.171Z,17.63
2024-03-09T16:25:50.844Z,17.40
2024-03-09T16:35:54.301Z,20.05
2024-03-09T16:40:56.291Z,16.65
2024-03-09T16:45:58.044Z,20.77
2024-03-09T16:50:59.895Z,19.98
2024-03-09T16:56:01.977Z,18.90
2024-03-09T17:01:03.840Z,18.83
2024-03-09T17:06:05.541Z,18.70
2024-03-09T17:11:07.231Z,19.00
2024-03-09T17:16:09.096Z,19.10
2024-03-09T17:21:10.875Z,17.10
2024-03-09T17:26:12.740Z,21.90
2024-03-09T17:31:14.553Z,22.35
2024-03-09T17:36:16.376Z,22.23
2024-03-09T17:41:18.161Z,24.08
2024-03-09T17:46:20.536Z,24.73
2024-03-09T17:51:22.312Z,24.57
2024-03-09T17:56:24.216Z,25.25
2024-03-09T18:01:25.989Z,25.20
2024-03-09T18:06:27.663Z,22.85
2024-03-09T18:11:29.756Z,25.02
2024-03-09T18:16:31.706Z,28.52
2024-03-09T18:21:33.309Z,25.35
2024-03-09T18:26:35.517Z,26.52
2024-03-09T18:31:37.188Z,25.70
2024-03-09T18:36:38.954Z,25.52
2024-03-09T18:41:40.849Z,22.80
2024-03-09T18:46:42.487Z,23.08
2024-03-09T18:51:44.275Z,25.52
2024-03-09T18:56:46.014Z,24.40
2024-03-09T19:01:47.910Z,23.60
2024-03-09T19:06:49.604Z,23.55
2024-03-09T19:11:51.434Z,25.45
2024-03-09T19:16:53.259Z,27.07
2024-03-09T19:21:55.147Z,23.83
2024-03-09T19:26:56.852Z,29.42
2024-03-09T19:31:58.772Z,26.20
2024-03-09T19:37:00.502Z,26.30
2024-03-09T19:42:02.133Z,27.42
2024-03-09T19:47:03.993Z,31.48
2024-03-09T19:52:06.020Z,38.73
2024-03-09T19:57:07.820Z,31.23
2024-03-09T20:02:09.491Z,34.45
2024-03-09T20:07:11.230Z,33.45
2024-03-09T20:12:13.590Z,32.15
2024-03-09T20:17:15.484Z,33.40
2024-03-09T20:22:17.252Z,28.90
2024-03-09T20:27:19.283Z,33.45
2024-03-09T20:32:21.044Z,31.07
2024-03-09T20:37:23.313Z,28.27
2024-03-09T20:42:25.056Z,32.23
2024-03-09T20:47:26.791Z,35.67
2024-03-09T20:52:28.446Z,33.75
2024-03-09T20:57:30.189Z,32.15
2024-03-09T21:02:31.949Z,32.88
2024-03-09T21:07:33.607Z,31.40
2024-03-09T21:12:35.248Z,32.08
2024-03-09T21:17:37.183Z,32.90
2024-03-09T21:22:39.037Z,36.50
2024-03-09T21:27:40.765Z,37.63
2024-03-09T21:32:42.666Z,33.80
2024-03-09T21:37:45.680Z,37.07
2024-03-09T21:42:47.852Z,39.58
2024-03-09T21:47:49.924Z,40.72
2024-03-09T21:52:52.019Z,40.97
2024-03-09T21:57:53.822Z,37.63
2024-03-09T22:02:56.918Z,39.40
2024-03-09T22:08:02.236Z,39.78
2024-03-09T22:13:04.104Z,39.83
2024-03-09T22:18:05.808Z,44.17
2024-03-09T22:23:07.453Z,38.63
2024-03-09T22:28:09.265Z,38.70
2024-03-09T22:33:11.479Z,40.67
2024-03-09T22:38:13.160Z,38.43
2024-03-09T22:43:14.925Z,39.88
2024-03-09T22:48:16.629Z,39.33
2024-03-09T22:53:18.377Z,36.03
2024-03-09T22:58:20.000Z,42.83
2024-03-09T23:03:21.717Z,38.63
2024-03-09T23:08:23.440Z,38.30
2024-03-09T23:13:25.099Z,38.05
2024-03-09T23:18:26.934Z,32.20
2024-03-09T23:23:28.670Z,36.53
2024-03-09T23:28:30.357Z,35.63
2024-03-09T23:33:31.953Z,30.92
2024-03-09T23:38:33.808Z,37.35
2024-03-09T23:43:35.599Z,32.70
2024-03-09T23:48:37.230Z,32.83
2024-03-09T23:53:38.853Z,35.85
2024-03-09T23:58:40.631Z,31.67
